Terminal Aerodrome Forecast
Issued by NWS

Home | Current Version | Previous Version | Text Only | Print | Product List | Glossary On
Versions: 1 2 3 4 5 6 7 8 9 10 11 12 13 14 15 16 17 18
287
FTUS44 KEWX 201512 AAB
TAFSSF
TAF AMD
KSSF 201512Z 2015/2112 VRB03KT P6SM VCSH SCT008 BKN012
      TEMPO 2015/2017 -RA BKN008
     FM201700 14006KT P6SM BKN012 BKN040
     FM201900 15009KT P6SM BKN040
     FM210700 15007KT P6SM OVC010=

USA.gov is the U.S. government's official web portal to all federal, state and local government web resources and services.